Time;durP1;ratioP1;P1;durP2;ratioP2;P2;SDS_P1;SDS_P2;PMS_P1;PMS_P2;Temp;Humidity;BMP_temperature;BMP_pressure;BME280_temperature;BME280_humidity;BME280_pressure;Samples;Min_cycle;Max_cycle;Signal;HPM_P1;HPM_P2
2022/01/26 00:07:12;;;;;;;107.15;35.90;;;;;;;;;;5016210;28;20336;-71
2022/01/26 00:09:39;;;;;;;104.18;36.25;;;;;;;;;;5014724;28;20049;-71
2022/01/26 00:12:06;;;;;;;106.20;36.22;;;;;;;;;;4999602;28;20667;-71
2022/01/26 00:14:32;;;;;;;114.57;38.03;;;;;;;;;;5022579;28;20052;-71
2022/01/26 00:17:00;;;;;;;113.90;36.67;;;;;;;;;;5018301;28;20057;-71
2022/01/26 00:19:42;;;;;;;112.57;36.88;;;;;;;;;;5036290;28;20057;-71
2022/01/26 00:22:09;;;;;;;110.35;37.45;;;;;;;;;;5036216;28;20078;-71
2022/01/26 00:27:23;;;;;;;108.82;37.20;;;;;;;;;;5036413;28;20152;-70
2022/01/26 00:30:00;;;;;;;116.57;39.10;;;;;;;;;;5036839;28;20049;-71
2022/01/26 00:38:34;;;;;;;109.90;36.38;;;;;;;;;;5036780;28;20049;-71
2022/01/26 00:41:02;;;;;;;110.63;36.65;;;;;;;;;;5037444;28;20060;-71
2022/01/26 00:43:28;;;;;;;110.78;36.67;;;;;;;;;;5037451;28;20053;-70
2022/01/26 00:45:57;;;;;;;111.88;36.47;;;;;;;;;;5037746;28;20142;-71
2022/01/26 00:48:23;;;;;;;;;;;;;;;;;;5037608;28;20144;-71
2022/01/26 00:50:52;;;;;;;109.68;35.45;;;;;;;;;;5018638;28;19946;-71
2022/01/26 00:53:18;;;;;;;;;;;;;;;;;;5019795;28;20191;-71
2022/01/26 00:55:45;;;;;;;111.65;35.40;;;;;;;;;;5036427;28;19925;-71
2022/01/26 00:58:11;;;;;;;111.43;38.08;;;;;;;;;;5019236;28;20088;-71
2022/01/26 01:00:37;;;;;;;114.10;36.72;;;;;;;;;;5019128;28;20060;-71
2022/01/26 01:03:04;;;;;;;114.68;36.45;;;;;;;;;;5036100;28;20044;-71
2022/01/26 01:05:43;;;;;;;114.65;35.33;;;;;;;;;;5036194;28;20048;-71
2022/01/26 01:08:15;;;;;;;112.03;36.08;;;;;;;;;;5016710;28;20230;-70
2022/01/26 01:10:45;;;;;;;110.90;37.72;;;;;;;;;;4996799;28;20529;-70
2022/01/26 01:13:14;;;;;;;113.25;36.58;;;;;;;;;;4999216;28;20506;-71
2022/01/26 01:15:40;;;;;;;110.95;37.58;;;;;;;;;;5031723;28;20044;-71
2022/01/26 01:18:14;;;;;;;110.38;38.50;;;;;;;;;;5040481;28;20060;-71
2022/01/26 01:23:43;;;;;;;115.60;37.03;;;;;;;;;;5040712;28;20059;-71
2022/01/26 01:31:15;;;;;;;121.35;39.17;;;;;;;;;;5039635;28;20060;-70
2022/01/26 01:33:45;;;;;;;123.20;39.67;;;;;;;;;;5039386;28;20455;-70
2022/01/26 01:36:12;;;;;;;117.47;36.05;;;;;;;;;;5040384;28;20045;-70
2022/01/26 01:38:41;;;;;;;111.55;36.70;;;;;;;;;;5039427;28;20080;-71
2022/01/26 01:41:08;;;;;;;111.40;37.13;;;;;;;;;;5039495;28;20047;-71
2022/01/26 01:43:35;;;;;;;114.10;38.20;;;;;;;;;;5039419;28;20059;-71
2022/01/26 01:46:02;;;;;;;111.30;34.97;;;;;;;;;;5038875;28;20132;-71
2022/01/26 01:48:31;;;;;;;109.77;36.47;;;;;;;;;;5039681;28;20053;-71
2022/01/26 01:51:00;;;;;;;111.35;34.80;;;;;;;;;;5039052;28;20302;-71
2022/01/26 01:53:38;;;;;;;105.93;35.58;;;;;;;;;;5039530;28;20057;-71
2022/01/26 01:56:05;;;;;;;111.30;37.08;;;;;;;;;;5021300;28;20437;-71
2022/01/26 01:58:31;;;;;;;108.22;35.83;;;;;;;;;;5040133;28;20398;-71
2022/01/26 02:00:58;;;;;;;107.63;35.63;;;;;;;;;;5039418;28;20052;-71
2022/01/26 02:03:25;;;;;;;112.53;36.55;;;;;;;;;;5039810;28;20647;-71
2022/01/26 02:05:51;;;;;;;108.93;35.95;;;;;;;;;;5035957;28;20060;-71
2022/01/26 02:08:18;;;;;;;97.75;32.72;;;;;;;;;;5000821;28;20045;-71
2022/01/26 02:10:45;;;;;;;113.18;36.15;;;;;;;;;;5018202;28;20050;-71
2022/01/26 02:16:07;;;;;;;109.18;34.55;;;;;;;;;;5019932;28;20060;-71
2022/01/26 02:56:45;;;;;;;105.55;33.65;;;;;;;;;;4999165;28;20046;-70
2022/01/26 02:59:38;;;;;;;111.63;37.28;;;;;;;;;;5017673;28;20049;-70
2022/01/26 03:02:07;;;;;;;111.28;34.03;;;;;;;;;;5018947;28;20743;-71
2022/01/26 03:04:54;;;;;;;113.60;36.63;;;;;;;;;;5019171;28;20077;-70
2022/01/26 03:07:35;;;;;;;119.13;36.42;;;;;;;;;;5018386;28;20526;-71
2022/01/26 03:10:08;;;;;;;117.03;37.15;;;;;;;;;;5016000;28;20060;-70
2022/01/26 03:12:49;;;;;;;117.10;37.42;;;;;;;;;;5019792;28;20576;-70
2022/01/26 03:15:22;;;;;;;114.50;36.45;;;;;;;;;;5012659;28;20163;-70
2022/01/26 03:20:24;;;;;;;122.07;38.65;;;;;;;;;;5038522;28;20048;-70
2022/01/26 03:28:42;;;;;;;113.75;38.95;;;;;;;;;;5038371;28;20448;-71
2022/01/26 03:36:14;;;;;;;119.38;37.53;;;;;;;;;;5018541;28;20104;-71
2022/01/26 03:38:47;;;;;;;107.22;37.63;;;;;;;;;;5018290;28;20057;-71
2022/01/26 03:44:19;;;;;;;114.57;38.45;;;;;;;;;;5016406;28;20060;-71
2022/01/26 03:46:47;;;;;;;111.25;36.35;;;;;;;;;;5017742;28;20053;-72
2022/01/26 03:49:14;;;;;;;111.38;37.47;;;;;;;;;;5017749;28;20053;-71
2022/01/26 03:51:40;;;;;;;113.22;37.75;;;;;;;;;;5017753;28;20053;-71
2022/01/26 03:54:07;;;;;;;117.45;38.47;;;;;;;;;;5018326;28;20080;-71
2022/01/26 03:56:34;;;;;;;118.72;38.03;;;;;;;;;;5017152;28;20069;-71
2022/01/26 03:59:01;;;;;;;112.43;38.00;;;;;;;;;;5017419;28;20060;-71
2022/01/26 04:01:29;;;;;;;120.85;40.40;;;;;;;;;;5017434;28;20049;-71
2022/01/26 04:03:58;;;;;;;115.03;38.90;;;;;;;;;;4999017;28;20061;-71
2022/01/26 04:06:25;;;;;;;118.03;37.70;;;;;;;;;;5017531;28;20104;-71
2022/01/26 04:08:52;;;;;;;117.50;39.03;;;;;;;;;;5018012;28;20049;-71
2022/01/26 04:14:08;;;;;;;119.63;38.92;;;;;;;;;;5017803;28;20050;-71
2022/01/26 04:16:34;;;;;;;116.05;39.03;;;;;;;;;;5018480;28;20711;-71
2022/01/26 04:19:01;;;;;;;120.95;39.42;;;;;;;;;;5017638;28;20060;-71
2022/01/26 04:24:05;;;;;;;115.55;38.40;;;;;;;;;;4998132;28;20058;-71
2022/01/26 04:26:38;;;;;;;105.68;35.67;;;;;;;;;;4998663;28;20057;-71
2022/01/26 04:29:14;;;;;;;121.82;41.13;;;;;;;;;;5013194;28;20054;-72
2022/01/26 04:31:40;;;;;;;113.38;38.45;;;;;;;;;;4997408;28;20360;-71
2022/01/26 04:34:06;;;;;;;114.70;37.53;;;;;;;;;;4998165;28;20046;-71
2022/01/26 04:36:40;;;;;;;114.35;38.10;;;;;;;;;;4998599;28;20149;-71
2022/01/26 04:39:11;;;;;;;121.72;39.28;;;;;;;;;;5012637;28;20459;-71
2022/01/26 04:44:11;;;;;;;110.18;37.80;;;;;;;;;;4997782;28;20053;-71
2022/01/26 04:46:37;;;;;;;116.57;36.70;;;;;;;;;;5000734;28;20062;-71
2022/01/26 04:49:03;;;;;;;126.68;40.80;;;;;;;;;;5000430;28;20089;-71
2022/01/26 04:51:30;;;;;;;103.80;36.25;;;;;;;;;;4999760;28;20061;-71
2022/01/26 04:53:56;;;;;;;111.68;37.88;;;;;;;;;;5001193;28;20050;-71
2022/01/26 04:56:23;;;;;;;105.00;35.90;;;;;;;;;;5001479;28;20053;-71
2022/01/26 04:58:49;;;;;;;113.22;39.22;;;;;;;;;;5000186;28;20061;-71
2022/01/26 05:01:15;;;;;;;122.10;38.55;;;;;;;;;;5000556;28;20057;-71
2022/01/26 05:03:42;;;;;;;112.22;38.30;;;;;;;;;;4998949;28;20112;-71
2022/01/26 05:06:08;;;;;;;114.18;38.65;;;;;;;;;;5008199;28;20062;-71
2022/01/26 05:08:36;;;;;;;122.40;39.30;;;;;;;;;;5020002;28;20061;-71
2022/01/26 05:11:03;;;;;;;111.72;38.75;;;;;;;;;;5000269;28;20132;-71
2022/01/26 05:13:50;;;;;;;117.93;38.78;;;;;;;;;;5020805;28;20053;-72
2022/01/26 05:16:17;;;;;;;110.05;38.92;;;;;;;;;;5020632;28;20381;-71
2022/01/26 05:18:43;;;;;;;124.82;40.03;;;;;;;;;;5020860;28;20054;-71
2022/01/26 05:21:09;;;;;;;119.68;42.28;;;;;;;;;;5018546;28;20053;-71
2022/01/26 05:23:36;;;;;;;119.35;40.25;;;;;;;;;;5040484;28;20159;-71
2022/01/26 05:26:02;;;;;;;121.43;41.10;;;;;;;;;;5040152;28;20064;-71
2022/01/26 05:28:28;;;;;;;117.63;39.97;;;;;;;;;;5040926;28;20067;-72
2022/01/26 05:30:55;;;;;;;128.43;40.45;;;;;;;;;;5039523;28;20049;-72
2022/01/26 05:33:23;;;;;;;123.38;41.65;;;;;;;;;;5040797;28;20051;-71
2022/01/26 05:35:50;;;;;;;123.63;39.80;;;;;;;;;;5040421;28;20059;-72
2022/01/26 05:38:17;;;;;;;120.05;39.58;;;;;;;;;;5040274;28;20057;-71
2022/01/26 05:40:43;;;;;;;121.50;41.03;;;;;;;;;;5040096;28;20428;-71
2022/01/26 05:43:09;;;;;;;118.38;40.17;;;;;;;;;;5040499;28;20053;-71
2022/01/26 05:45:38;;;;;;;124.28;42.70;;;;;;;;;;5039662;28;20075;-71
2022/01/26 05:48:09;;;;;;;120.55;39.70;;;;;;;;;;5039569;28;20056;-71
2022/01/26 05:50:37;;;;;;;132.65;40.47;;;;;;;;;;5021963;28;20089;-71
2022/01/26 05:53:04;;;;;;;129.55;43.40;;;;;;;;;;5039587;28;20491;-71
2022/01/26 05:55:30;;;;;;;129.93;42.65;;;;;;;;;;5040253;28;20390;-71
2022/01/26 05:57:57;;;;;;;116.85;40.80;;;;;;;;;;5054470;28;20308;-71
2022/01/26 06:00:23;;;;;;;127.70;41.63;;;;;;;;;;5034830;28;20053;-71
2022/01/26 06:02:49;;;;;;;132.32;43.40;;;;;;;;;;5033199;28;20040;-71
2022/01/26 06:05:16;;;;;;;126.28;41.47;;;;;;;;;;5023363;28;20416;-71
2022/01/26 06:07:42;;;;;;;135.30;42.80;;;;;;;;;;5018263;28;20053;-71
2022/01/26 06:10:08;;;;;;;128.00;42.45;;;;;;;;;;5029401;28;20055;-71
2022/01/26 06:12:35;;;;;;;137.43;42.58;;;;;;;;;;5039806;28;20063;-71
2022/01/26 06:15:02;;;;;;;124.97;41.47;;;;;;;;;;5032047;28;20049;-71
2022/01/26 06:17:29;;;;;;;123.22;40.60;;;;;;;;;;5014399;28;20041;-71
2022/01/26 06:19:55;;;;;;;143.18;43.85;;;;;;;;;;5006321;28;20084;-70
2022/01/26 06:22:21;;;;;;;121.35;40.70;;;;;;;;;;5039103;28;20051;-71
2022/01/26 06:24:48;;;;;;;119.60;41.35;;;;;;;;;;5021115;28;20052;-71
2022/01/26 06:27:14;;;;;;;117.20;39.95;;;;;;;;;;5038036;28;20049;-71
2022/01/26 06:29:40;;;;;;;118.43;38.75;;;;;;;;;;5031093;28;20041;-71
2022/01/26 06:32:07;;;;;;;129.75;42.35;;;;;;;;;;5030109;28;20045;-71
2022/01/26 06:34:38;;;;;;;114.95;39.33;;;;;;;;;;5036838;28;20079;-71
2022/01/26 06:37:06;;;;;;;120.43;40.58;;;;;;;;;;5019281;28;20057;-71
2022/01/26 06:39:32;;;;;;;126.50;41.30;;;;;;;;;;5019318;28;20049;-71
2022/01/26 06:41:59;;;;;;;116.63;39.33;;;;;;;;;;5000684;28;20057;-71
2022/01/26 06:44:33;;;;;;;120.07;40.58;;;;;;;;;;5020601;28;20057;-71
2022/01/26 06:49:38;;;;;;;129.25;39.47;;;;;;;;;;5038072;28;20498;-71
2022/01/26 06:52:05;;;;;;;122.25;40.83;;;;;;;;;;5034599;28;20049;-71
2022/01/26 06:54:31;;;;;;;127.68;43.42;;;;;;;;;;5023510;28;20060;-71
2022/01/26 06:56:58;;;;;;;127.55;42.22;;;;;;;;;;5018858;28;20049;-71
2022/01/26 06:59:24;;;;;;;135.43;44.05;;;;;;;;;;5019659;28;20065;-71
2022/01/26 07:01:51;;;;;;;136.52;42.63;;;;;;;;;;5019421;28;20123;-71
2022/01/26 07:04:17;;;;;;;123.68;42.55;;;;;;;;;;5026170;28;20058;-71
2022/01/26 07:06:44;;;;;;;141.70;44.33;;;;;;;;;;5009385;28;20513;-71
2022/01/26 07:09:10;;;;;;;139.32;43.83;;;;;;;;;;5021548;28;20060;-71
2022/01/26 07:11:36;;;;;;;133.65;41.58;;;;;;;;;;5001242;28;20049;-71
2022/01/26 07:14:09;;;;;;;139.38;43.15;;;;;;;;;;5018516;28;20053;-71
2022/01/26 07:19:50;;;;;;;146.23;45.05;;;;;;;;;;5025964;28;20285;-71
2022/01/26 07:22:13;;;;;;;144.02;43.95;;;;;;;;;;5032064;28;20052;-71
2022/01/26 07:24:39;;;;;;;137.35;43.80;;;;;;;;;;5033957;28;20075;-71
2022/01/26 07:27:05;;;;;;;154.15;45.08;;;;;;;;;;5033976;28;20058;-71
2022/01/26 07:29:32;;;;;;;152.45;44.38;;;;;;;;;;5018615;28;20057;-71
2022/01/26 07:31:59;;;;;;;149.65;45.13;;;;;;;;;;5017103;28;20735;-71
2022/01/26 07:34:25;;;;;;;145.70;45.28;;;;;;;;;;5017910;28;20482;-71
2022/01/26 07:36:54;;;;;;;138.65;43.60;;;;;;;;;;5017987;28;20057;-71
2022/01/26 07:39:42;;;;;;;157.13;46.95;;;;;;;;;;5018793;28;20045;-71
2022/01/26 07:42:09;;;;;;;144.63;45.00;;;;;;;;;;5019569;28;20049;-71
2022/01/26 07:44:35;;;;;;;138.65;42.50;;;;;;;;;;5026041;28;20495;-71
2022/01/26 07:47:02;;;;;;;150.45;43.58;;;;;;;;;;5017671;28;20113;-71
2022/01/26 07:49:28;;;;;;;141.73;43.75;;;;;;;;;;5018071;28;20079;-71
2022/01/26 07:51:58;;;;;;;147.10;43.92;;;;;;;;;;5017185;28;20046;-71
2022/01/26 07:54:25;;;;;;;149.10;44.20;;;;;;;;;;5000421;28;20712;-71
2022/01/26 07:56:51;;;;;;;156.73;45.55;;;;;;;;;;5018156;28;20143;-71
2022/01/26 07:59:18;;;;;;;143.52;41.25;;;;;;;;;;5017585;28;20049;-71
2022/01/26 08:01:44;;;;;;;135.10;41.05;;;;;;;;;;5017355;28;20060;-71
2022/01/26 08:04:11;;;;;;;141.63;42.65;;;;;;;;;;5016897;28;20053;-71
2022/01/26 08:06:38;;;;;;;148.15;43.67;;;;;;;;;;5020798;28;20138;-71
2022/01/26 08:09:04;;;;;;;154.95;46.15;;;;;;;;;;5000858;28;20061;-70
2022/01/26 08:11:31;;;;;;;143.18;41.88;;;;;;;;;;5018145;28;20682;-71
2022/01/26 08:13:58;;;;;;;145.18;42.63;;;;;;;;;;5024838;28;20049;-71
2022/01/26 08:16:24;;;;;;;145.52;43.83;;;;;;;;;;5018753;28;20641;-71
2022/01/26 08:18:50;;;;;;;141.80;42.63;;;;;;;;;;5017755;28;20050;-70
2022/01/26 08:21:18;;;;;;;144.18;42.92;;;;;;;;;;5038122;28;20060;-70
2022/01/26 08:23:45;;;;;;;152.77;45.17;;;;;;;;;;5040549;28;20059;-70
2022/01/26 08:26:13;;;;;;;146.75;43.95;;;;;;;;;;5025268;28;20156;-71
2022/01/26 08:28:42;;;;;;;158.23;46.55;;;;;;;;;;5003387;28;20049;-71
2022/01/26 08:31:08;;;;;;;152.40;45.50;;;;;;;;;;5021361;28;20041;-71
2022/01/26 08:33:35;;;;;;;148.45;43.67;;;;;;;;;;5026394;28;20049;-71
2022/01/26 08:36:01;;;;;;;133.90;41.90;;;;;;;;;;5021648;28;20064;-70
2022/01/26 08:38:28;;;;;;;141.63;45.28;;;;;;;;;;5004119;28;20053;-71
2022/01/26 08:40:54;;;;;;;139.32;42.70;;;;;;;;;;5021466;28;20060;-71
2022/01/26 08:43:20;;;;;;;138.05;41.00;;;;;;;;;;5004115;28;20063;-71
2022/01/26 08:45:46;;;;;;;146.07;42.58;;;;;;;;;;5021488;28;20061;-71
2022/01/26 08:48:13;;;;;;;153.32;45.50;;;;;;;;;;5004367;28;20447;-71
2022/01/26 08:50:40;;;;;;;143.48;43.63;;;;;;;;;;5020900;28;20504;-71
2022/01/26 08:53:06;;;;;;;140.20;42.22;;;;;;;;;;5004525;28;20231;-70
2022/01/26 08:55:35;;;;;;;143.20;43.28;;;;;;;;;;5022931;28;20510;-72
2022/01/26 08:58:01;;;;;;;137.10;44.00;;;;;;;;;;5021839;28;20053;-72
2022/01/26 09:00:27;;;;;;;158.13;44.00;;;;;;;;;;5022014;28;20493;-72
2022/01/26 09:02:55;;;;;;;120.97;37.95;;;;;;;;;;5030791;28;20057;-71
2022/01/26 09:05:22;;;;;;;150.23;43.35;;;;;;;;;;5040644;28;20122;-71
2022/01/26 09:07:49;;;;;;;140.75;42.03;;;;;;;;;;5003581;28;20057;-71
2022/01/26 09:10:16;;;;;;;150.60;46.40;;;;;;;;;;5019263;28;20061;-71
2022/01/26 09:12:44;;;;;;;137.93;44.55;;;;;;;;;;5020789;28;20057;-71
2022/01/26 09:15:11;;;;;;;140.98;42.15;;;;;;;;;;5022854;28;20080;-71
2022/01/26 09:17:38;;;;;;;138.98;43.95;;;;;;;;;;5020706;28;20054;-71
2022/01/26 09:20:06;;;;;;;147.85;43.63;;;;;;;;;;5026678;28;20056;-71
2022/01/26 09:22:32;;;;;;;135.50;41.55;;;;;;;;;;5041088;28;20049;-71
2022/01/26 09:24:58;;;;;;;147.75;43.63;;;;;;;;;;5041196;28;20076;-71
2022/01/26 09:27:25;;;;;;;138.18;42.13;;;;;;;;;;5040474;28;20052;-71
2022/01/26 09:29:51;;;;;;;131.27;40.13;;;;;;;;;;5040611;28;20349;-71
2022/01/26 09:32:18;;;;;;;142.57;44.03;;;;;;;;;;5039965;28;20041;-71
2022/01/26 09:34:44;;;;;;;137.40;42.40;;;;;;;;;;5023849;28;20837;-71
2022/01/26 09:37:14;;;;;;;136.93;43.70;;;;;;;;;;5020784;28;20536;-71
2022/01/26 09:39:42;;;;;;;133.55;42.78;;;;;;;;;;5020086;28;20423;-71
2022/01/26 09:42:08;;;;;;;142.80;43.13;;;;;;;;;;5022772;28;20053;-71
2022/01/26 09:44:35;;;;;;;137.77;41.50;;;;;;;;;;5020400;28;20068;-71
2022/01/26 09:47:01;;;;;;;137.57;41.03;;;;;;;;;;5020298;28;20525;-71
2022/01/26 09:49:33;;;;;;;137.77;41.33;;;;;;;;;;5020118;28;20053;-71
2022/01/26 09:52:01;;;;;;;133.75;40.60;;;;;;;;;;5020205;28;20053;-71
2022/01/26 09:54:30;;;;;;;120.82;39.78;;;;;;;;;;5020181;28;20049;-71
2022/01/26 09:57:16;;;;;;;;;;;;;;;;;;5020605;28;20953;-71
2022/01/26 09:59:42;;;;;;;121.97;38.50;;;;;;;;;;5020244;28;19925;-71
2022/01/26 10:02:19;;;;;;;138.32;43.00;;;;;;;;;;5020996;28;20048;-71
2022/01/26 10:04:46;;;;;;;144.55;44.15;;;;;;;;;;5012229;28;20130;-71
2022/01/26 10:09:50;;;;;;;133.57;41.13;;;;;;;;;;5017511;28;20063;-70
2022/01/26 10:17:58;;;;;;;121.43;40.15;;;;;;;;;;5033287;28;20685;-71
2022/01/26 10:20:25;;;;;;;124.50;42.33;;;;;;;;;;5008039;28;20049;-71
2022/01/26 10:22:51;;;;;;;127.80;42.13;;;;;;;;;;5029965;28;20279;-71
2022/01/26 10:25:19;;;;;;;118.43;38.95;;;;;;;;;;5052327;28;20079;-70
2022/01/26 10:28:04;;;;;;;117.72;40.15;;;;;;;;;;5003190;28;20140;-71
2022/01/26 10:30:32;;;;;;;114.47;39.03;;;;;;;;;;5019409;28;20053;-71
2022/01/26 10:32:59;;;;;;;115.82;38.22;;;;;;;;;;5019294;28;20076;-71
2022/01/26 10:35:25;;;;;;;123.22;39.85;;;;;;;;;;5019232;28;20397;-71
2022/01/26 10:37:55;;;;;;;111.65;38.90;;;;;;;;;;5019200;28;20152;-70
2022/01/26 10:40:24;;;;;;;112.43;37.58;;;;;;;;;;5020132;28;20056;-70
2022/01/26 10:42:55;;;;;;;117.43;37.50;;;;;;;;;;4999726;28;20072;-71
2022/01/26 10:45:34;;;;;;;99.35;35.03;;;;;;;;;;5034587;28;20089;-70
2022/01/26 10:48:10;;;;;;;111.93;39.58;;;;;;;;;;5019051;28;20049;-70
2022/01/26 10:53:05;;;;;;;101.10;37.33;;;;;;;;;;5019362;28;20164;-70
2022/01/26 10:55:33;;;;;;;105.03;38.88;;;;;;;;;;5018768;28;20144;-70
2022/01/26 10:58:00;;;;;;;94.95;34.95;;;;;;;;;;5018012;28;20542;-71
2022/01/26 11:00:27;;;;;;;105.97;37.42;;;;;;;;;;5022521;28;20090;-70
2022/01/26 11:02:57;;;;;;;96.20;34.60;;;;;;;;;;5003469;28;20053;-70
2022/01/26 11:05:31;;;;;;;101.20;36.67;;;;;;;;;;5073334;28;21062;-70
2022/01/26 11:07:58;;;;;;;94.00;34.45;;;;;;;;;;5064437;28;20063;-71
2022/01/26 11:10:33;;;;;;;99.40;36.13;;;;;;;;;;5072756;28;20064;-71
2022/01/26 11:12:59;;;;;;;89.10;34.83;;;;;;;;;;5074885;28;20048;-71
2022/01/26 11:15:25;;;;;;;78.65;32.22;;;;;;;;;;5075580;28;20058;-71
2022/01/26 11:17:52;;;;;;;82.00;33.88;;;;;;;;;;5073453;28;20105;-70
2022/01/26 11:20:22;;;;;;;80.60;32.10;;;;;;;;;;5074503;28;20044;-71
2022/01/26 11:22:53;;;;;;;75.18;30.27;;;;;;;;;;5071701;28;20048;-70
2022/01/26 11:25:20;;;;;;;72.30;29.40;;;;;;;;;;5076060;28;20048;-71
2022/01/26 11:27:47;;;;;;;82.70;30.83;;;;;;;;;;5065497;28;20049;-72
2022/01/26 11:30:18;;;;;;;74.35;28.85;;;;;;;;;;5055067;28;20193;-72
2022/01/26 11:33:04;;;;;;;71.70;28.23;;;;;;;;;;5058865;28;20052;-72
2022/01/26 11:35:32;;;;;;;74.40;28.58;;;;;;;;;;5074379;28;20091;-71
2022/01/26 11:38:07;;;;;;;70.60;28.40;;;;;;;;;;5075018;28;20640;-71
2022/01/26 11:46:21;;;;;;;70.32;27.65;;;;;;;;;;5074794;28;20626;-71
2022/01/26 11:48:57;;;;;;;66.68;25.70;;;;;;;;;;5073628;28;20052;-70
2022/01/26 11:51:24;;;;;;;67.45;26.33;;;;;;;;;;5074071;28;20386;-71
2022/01/26 11:53:50;;;;;;;62.95;25.77;;;;;;;;;;5067129;28;20063;-70
2022/01/26 11:56:23;;;;;;;66.93;25.15;;;;;;;;;;5064238;28;20060;-71
2022/01/26 11:58:53;;;;;;;67.25;26.02;;;;;;;;;;5067429;28;20052;-70
2022/01/26 12:01:30;;;;;;;73.47;24.48;;;;;;;;;;5074949;28;20048;-70
2022/01/26 12:04:01;;;;;;;70.82;26.23;;;;;;;;;;5043711;28;20166;-71
2022/01/26 12:06:29;;;;;;;70.55;27.05;;;;;;;;;;5041751;28;20060;-71
2022/01/26 12:08:58;;;;;;;64.97;25.02;;;;;;;;;;5047261;28;20496;-71
2022/01/26 12:11:28;;;;;;;77.32;28.92;;;;;;;;;;5049830;28;20052;-71
2022/01/26 12:13:58;;;;;;;74.05;29.50;;;;;;;;;;5053334;28;20061;-71
2022/01/26 12:16:32;;;;;;;72.72;28.15;;;;;;;;;;5037497;28;20151;-71
2022/01/26 12:43:15;;;;;;;87.28;30.63;;;;;;;;;;5018851;28;20056;-71
2022/01/26 12:45:57;;;;;;;70.10;27.83;;;;;;;;;;5040039;28;20076;-71
2022/01/26 12:48:24;;;;;;;74.65;29.20;;;;;;;;;;5040463;28;20055;-71
2022/01/26 12:50:50;;;;;;;69.90;28.73;;;;;;;;;;5037485;28;20045;-71
2022/01/26 12:53:26;;;;;;;68.75;29.83;;;;;;;;;;5033865;28;20049;-72
2022/01/26 12:55:57;;;;;;;71.13;29.05;;;;;;;;;;5037947;28;20147;-70
2022/01/26 12:58:24;;;;;;;70.15;27.30;;;;;;;;;;5037049;28;20053;-70
2022/01/26 13:00:51;;;;;;;68.60;28.13;;;;;;;;;;5025304;28;20045;-70
2022/01/26 13:03:19;;;;;;;68.40;28.08;;;;;;;;;;5032185;28;20438;-71
2022/01/26 13:05:46;;;;;;;;;;;;;;;;;;5039283;28;20041;-70
2022/01/26 13:08:12;;;;;;;67.90;27.95;;;;;;;;;;5040728;28;19924;-70
2022/01/26 13:10:39;;;;;;;66.28;26.75;;;;;;;;;;5038270;28;20052;-71
2022/01/26 13:13:09;;;;;;;70.22;28.02;;;;;;;;;;5040281;28;20555;-70
2022/01/26 13:15:46;;;;;;;73.43;28.35;;;;;;;;;;5040119;28;20053;-71
2022/01/26 13:18:16;;;;;;;65.93;27.25;;;;;;;;;;5038476;28;20456;-70
2022/01/26 13:21:09;;;;;;;65.13;24.40;;;;;;;;;;5039344;28;20063;-69
2022/01/26 13:23:42;;;;;;;54.85;23.70;;;;;;;;;;5040124;28;20052;-71
2022/01/26 13:37:01;;;;;;;71.28;26.88;;;;;;;;;;5036177;28;20061;-69
2022/01/26 13:47:27;;;;;;;67.72;27.77;;;;;;;;;;5038762;28;20417;-71
2022/01/26 13:52:37;;;;;;;61.47;26.48;;;;;;;;;;5039652;28;20493;-70
2022/01/26 13:55:26;;;;;;;54.83;25.48;;;;;;;;;;5038519;28;20464;-69
2022/01/26 14:00:20;;;;;;;62.35;24.95;;;;;;;;;;5038788;28;20554;-70
2022/01/26 14:02:49;;;;;;;68.53;26.50;;;;;;;;;;5038162;28;20056;-70
2022/01/26 14:05:16;;;;;;;66.72;27.65;;;;;;;;;;5039226;28;20045;-70
2022/01/26 14:07:42;;;;;;;65.57;26.30;;;;;;;;;;5038361;28;20037;-70
2022/01/26 14:10:09;;;;;;;62.60;25.55;;;;;;;;;;5037330;28;20075;-70
2022/01/26 14:12:40;;;;;;;61.13;24.52;;;;;;;;;;5038592;28;20061;-70
2022/01/26 14:15:08;;;;;;;62.75;25.30;;;;;;;;;;5034182;28;20049;-71
2022/01/26 14:17:55;;;;;;;64.68;26.13;;;;;;;;;;5036136;28;20537;-71
2022/01/26 14:23:15;;;;;;;65.60;28.02;;;;;;;;;;5038233;28;20052;-71
2022/01/26 14:25:43;;;;;;;58.75;26.88;;;;;;;;;;5024710;28;20045;-71
2022/01/26 14:28:12;;;;;;;;;;;;;;;;;;5033191;28;20053;-71
2022/01/26 14:54:50;;;;;;;60.55;25.95;;;;;;;;;;5036846;28;20198;-72
2022/01/26 15:00:22;;;;;;;54.72;24.95;;;;;;;;;;5039008;28;20136;-72
2022/01/26 15:09:10;;;;;;;55.10;24.75;;;;;;;;;;4995383;28;20618;-71
2022/01/26 15:44:50;;;;;;;62.90;25.17;;;;;;;;;;5031849;28;20491;-70
2022/01/26 15:53:03;;;;;;;56.00;23.80;;;;;;;;;;5042331;28;20049;-71
2022/01/26 16:06:55;;;;;;;61.88;25.20;;;;;;;;;;5041377;28;20049;-70
2022/01/26 17:11:10;;;;;;;70.93;30.27;;;;;;;;;;5039689;28;20107;-70
2022/01/26 17:37:50;;;;;;;65.80;29.42;;;;;;;;;;5039696;28;20090;-71
2022/01/26 18:13:13;;;;;;;92.78;40.20;;;;;;;;;;5032467;28;20068;-72
2022/01/26 18:15:53;;;;;;;87.28;35.60;;;;;;;;;;5020175;28;20632;-70
2022/01/26 18:26:45;;;;;;;93.03;37.22;;;;;;;;;;5038478;28;20044;-70
2022/01/26 18:51:28;;;;;;;86.20;34.08;;;;;;;;;;5031351;28;20137;-70
2022/01/26 18:53:55;;;;;;;81.18;34.45;;;;;;;;;;5036827;28;20049;-71
2022/01/26 18:56:21;;;;;;;88.88;33.60;;;;;;;;;;5038280;28;20116;-71
2022/01/26 18:58:47;;;;;;;80.45;31.80;;;;;;;;;;5032679;28;20167;-71
2022/01/26 19:01:14;;;;;;;81.60;33.00;;;;;;;;;;5038131;28;20053;-71
2022/01/26 19:03:41;;;;;;;85.75;33.47;;;;;;;;;;5037389;28;20060;-71
2022/01/26 19:06:08;;;;;;;90.90;34.05;;;;;;;;;;5036278;28;21019;-71
2022/01/26 19:08:34;;;;;;;90.03;34.25;;;;;;;;;;5038394;28;20045;-70
2022/01/26 19:11:00;;;;;;;90.78;35.28;;;;;;;;;;5033887;28;20060;-71
2022/01/26 19:13:30;;;;;;;89.72;34.65;;;;;;;;;;5034035;28;20053;-71
2022/01/26 19:16:06;;;;;;;92.30;37.03;;;;;;;;;;5029041;28;20139;-73
2022/01/26 19:18:52;;;;;;;84.47;31.52;;;;;;;;;;5042652;28;20668;-71
2022/01/26 19:24:14;;;;;;;78.97;31.95;;;;;;;;;;5042518;28;20060;-72
2022/01/26 19:26:46;;;;;;;81.18;31.95;;;;;;;;;;5045148;28;20053;-72
2022/01/26 19:32:38;;;;;;;89.47;33.95;;;;;;;;;;5036384;28;20049;-72
2022/01/26 19:46:25;;;;;;;76.90;29.60;;;;;;;;;;5032816;28;20068;-71
2022/01/26 19:51:40;;;;;;;84.85;32.13;;;;;;;;;;5029596;28;20495;-71
2022/01/26 19:54:06;;;;;;;82.25;30.83;;;;;;;;;;5024583;28;20041;-71
2022/01/26 19:56:33;;;;;;;93.60;31.20;;;;;;;;;;5032520;28;20588;-72
2022/01/26 19:58:59;;;;;;;82.03;30.50;;;;;;;;;;5027086;28;20064;-71
2022/01/26 20:01:26;;;;;;;76.95;31.13;;;;;;;;;;5057172;28;20136;-72
2022/01/26 20:03:52;;;;;;;76.25;29.20;;;;;;;;;;5036532;28;20106;-71
2022/01/26 20:06:19;;;;;;;88.90;30.80;;;;;;;;;;5026364;28;20053;-71
2022/01/26 20:09:04;;;;;;;82.90;31.80;;;;;;;;;;5038011;28;20489;-71
2022/01/26 20:11:40;;;;;;;72.75;29.38;;;;;;;;;;5031462;28;20059;-71
2022/01/26 20:14:07;;;;;;;73.90;29.85;;;;;;;;;;5037408;28;20056;-71
2022/01/26 20:16:34;;;;;;;83.38;30.88;;;;;;;;;;5036288;28;20230;-71
2022/01/26 20:19:00;;;;;;;78.60;29.27;;;;;;;;;;5038269;28;20056;-71
2022/01/26 20:21:27;;;;;;;79.07;31.08;;;;;;;;;;5037119;28;20053;-71
2022/01/26 20:23:58;;;;;;;78.38;28.73;;;;;;;;;;5039763;28;20537;-71
2022/01/26 20:26:24;;;;;;;78.93;30.80;;;;;;;;;;5038888;28;20056;-71
2022/01/26 20:28:51;;;;;;;71.50;28.65;;;;;;;;;;5040104;28;20045;-70
2022/01/26 20:31:22;;;;;;;69.68;27.23;;;;;;;;;;5039931;28;20053;-70
2022/01/26 20:33:49;;;;;;;65.63;25.90;;;;;;;;;;5039164;28;20080;-72
2022/01/26 20:36:16;;;;;;;67.28;27.25;;;;;;;;;;5039667;28;20549;-71
2022/01/26 20:38:42;;;;;;;64.47;27.42;;;;;;;;;;5039368;28;20449;-71
2022/01/26 20:41:09;;;;;;;70.13;28.60;;;;;;;;;;5039396;28;20064;-71
2022/01/26 20:43:35;;;;;;;75.43;28.13;;;;;;;;;;5039427;28;20660;-70
2022/01/26 20:46:05;;;;;;;73.68;27.45;;;;;;;;;;5039393;28;20057;-70
2022/01/26 20:48:32;;;;;;;70.43;27.58;;;;;;;;;;5038434;28;20045;-71
2022/01/26 20:50:59;;;;;;;62.47;25.60;;;;;;;;;;5037955;28;20525;-70
2022/01/26 20:53:26;;;;;;;67.95;27.50;;;;;;;;;;5038089;28;20057;-71
2022/01/26 20:55:52;;;;;;;67.68;28.88;;;;;;;;;;5038355;28;20048;-71
2022/01/26 20:58:19;;;;;;;79.90;28.30;;;;;;;;;;5039644;28;20473;-70
2022/01/26 21:01:01;;;;;;;77.55;29.02;;;;;;;;;;5039536;28;20148;-71
2022/01/26 21:03:28;;;;;;;69.68;27.25;;;;;;;;;;5039540;28;20049;-70
2022/01/26 21:05:55;;;;;;;70.45;27.92;;;;;;;;;;5038750;28;20158;-72
2022/01/26 21:08:22;;;;;;;74.00;28.33;;;;;;;;;;5039478;28;20490;-71
2022/01/26 21:10:49;;;;;;;78.70;28.33;;;;;;;;;;5036347;28;20056;-71
2022/01/26 21:13:28;;;;;;;70.07;27.83;;;;;;;;;;5040321;28;20053;-71
2022/01/26 21:15:54;;;;;;;62.80;23.63;;;;;;;;;;5038653;28;20166;-71